sensor_id;sensor_type;location;lat;lon;timestamp;pressure;altitude;pressure_sealevel;temperature;humidity
77871;BME280;67067;46.850;7.578;2023-03-14T00:00:54;94258.94;;;7.28;49.87
77871;BME280;67067;46.850;7.578;2023-03-14T00:01:57;94257.13;;;7.33;49.87
77871;BME280;67067;46.850;7.578;2023-03-14T00:03:03;94249.75;;;7.36;50.41
77871;BME280;67067;46.850;7.578;2023-03-14T00:04:04;94250.31;;;7.38;50.32
77871;BME280;67067;46.850;7.578;2023-03-14T00:05:08;94247.66;;;7.38;49.85
77871;BME280;67067;46.850;7.578;2023-03-14T00:06:09;94248.13;;;7.24;50.51
77871;BME280;67067;46.850;7.578;2023-03-14T00:07:13;94247.63;;;7.27;51.04
77871;BME280;67067;46.850;7.578;2023-03-14T00:08:13;94253.94;;;7.31;50.36
77871;BME280;67067;46.850;7.578;2023-03-14T00:09:14;94234.44;;;7.22;51.29
77871;BME280;67067;46.850;7.578;2023-03-14T00:10:15;94200.22;;;7.27;51.22
77871;BME280;67067;46.850;7.578;2023-03-14T00:11:18;94187.56;;;7.19;52.00
77871;BME280;67067;46.850;7.578;2023-03-14T00:12:19;94181.53;;;7.24;52.30
77871;BME280;67067;46.850;7.578;2023-03-14T00:13:19;94211.22;;;7.14;52.28
77871;BME280;67067;46.850;7.578;2023-03-14T00:14:20;94216.94;;;7.00;52.54
77871;BME280;67067;46.850;7.578;2023-03-14T00:15:20;94221.94;;;7.07;52.57
77871;BME280;67067;46.850;7.578;2023-03-14T00:16:24;94224.88;;;7.11;52.24
77871;BME280;67067;46.850;7.578;2023-03-14T00:17:24;94219.09;;;7.09;52.28
77871;BME280;67067;46.850;7.578;2023-03-14T00:18:27;94214.91;;;7.13;52.68
77871;BME280;67067;46.850;7.578;2023-03-14T00:19:27;94202.78;;;7.12;52.60
77871;BME280;67067;46.850;7.578;2023-03-14T00:20:28;94200.69;;;7.14;52.58
77871;BME280;67067;46.850;7.578;2023-03-14T00:21:31;94189.13;;;7.15;52.82
77871;BME280;67067;46.850;7.578;2023-03-14T00:22:35;94186.50;;;7.15;52.42
77871;BME280;67067;46.850;7.578;2023-03-14T00:23:37;94180.19;;;7.21;52.24
77871;BME280;67067;46.850;7.578;2023-03-14T00:24:38;94171.00;;;7.18;52.06
77871;BME280;67067;46.850;7.578;2023-03-14T00:25:43;94162.03;;;7.14;52.51
77871;BME280;67067;46.850;7.578;2023-03-14T00:26:44;94168.00;;;6.99;52.77
77871;BME280;67067;46.850;7.578;2023-03-14T00:27:44;94171.16;;;7.01;53.14
77871;BME280;67067;46.850;7.578;2023-03-14T00:28:51;94141.88;;;6.93;53.27
77871;BME280;67067;46.850;7.578;2023-03-14T00:29:51;94141.03;;;6.82;53.04
77871;BME280;67067;46.850;7.578;2023-03-14T00:30:52;94134.97;;;6.43;53.98
77871;BME280;67067;46.850;7.578;2023-03-14T00:31:55;94129.78;;;6.54;53.96
77871;BME280;67067;46.850;7.578;2023-03-14T00:32:56;94129.31;;;6.62;53.79
77871;BME280;67067;46.850;7.578;2023-03-14T00:33:56;94122.94;;;6.53;54.19
77871;BME280;67067;46.850;7.578;2023-03-14T00:34:58;94120.34;;;6.58;53.38
77871;BME280;67067;46.850;7.578;2023-03-14T00:36:04;94125.63;;;6.63;53.76
77871;BME280;67067;46.850;7.578;2023-03-14T00:37:05;94127.25;;;6.69;53.52
77871;BME280;67067;46.850;7.578;2023-03-14T00:38:06;94122.47;;;6.61;53.76
77871;BME280;67067;46.850;7.578;2023-03-14T00:39:11;94124.09;;;6.67;53.99
77871;BME280;67067;46.850;7.578;2023-03-14T00:40:14;94127.25;;;6.69;54.52
77871;BME280;67067;46.850;7.578;2023-03-14T00:41:19;94134.06;;;6.65;54.89
77871;BME280;67067;46.850;7.578;2023-03-14T00:42:21;94143.06;;;6.74;54.28
77871;BME280;67067;46.850;7.578;2023-03-14T00:43:22;94149.66;;;6.77;54.32
77871;BME280;67067;46.850;7.578;2023-03-14T00:44:23;94154.41;;;6.80;54.37
77871;BME280;67067;46.850;7.578;2023-03-14T00:45:23;94163.63;;;6.78;54.32
77871;BME280;67067;46.850;7.578;2023-03-14T00:46:27;94160.72;;;6.79;54.50
77871;BME280;67067;46.850;7.578;2023-03-14T00:47:27;94169.16;;;6.81;54.84
77871;BME280;67067;46.850;7.578;2023-03-14T00:48:28;94161.25;;;6.81;54.53
77871;BME280;67067;46.850;7.578;2023-03-14T00:49:31;94159.41;;;6.77;55.09
77871;BME280;67067;46.850;7.578;2023-03-14T00:50:32;94160.94;;;6.72;55.32
77871;BME280;67067;46.850;7.578;2023-03-14T00:51:32;94148.03;;;6.66;55.40
77871;BME280;67067;46.850;7.578;2023-03-14T00:52:39;94156.19;;;6.69;55.40
77871;BME280;67067;46.850;7.578;2023-03-14T00:53:41;94155.94;;;6.71;55.12
77871;BME280;67067;46.850;7.578;2023-03-14T00:54:41;94165.22;;;6.79;54.99
77871;BME280;67067;46.850;7.578;2023-03-14T00:55:43;94172.28;;;6.78;55.23
77871;BME280;67067;46.850;7.578;2023-03-14T00:56:43;94192.25;;;6.74;54.93
77871;BME280;67067;46.850;7.578;2023-03-14T00:57:46;94198.84;;;6.77;55.29
77871;BME280;67067;46.850;7.578;2023-03-14T00:58:49;94184.41;;;6.79;55.07
77871;BME280;67067;46.850;7.578;2023-03-14T00:59:53;94159.63;;;6.70;55.50
77871;BME280;67067;46.850;7.578;2023-03-14T01:00:53;94148.31;;;6.74;55.36
77871;BME280;67067;46.850;7.578;2023-03-14T01:01:54;94149.38;;;6.73;55.12
77871;BME280;67067;46.850;7.578;2023-03-14T01:02:57;94146.75;;;6.73;54.65
77871;BME280;67067;46.850;7.578;2023-03-14T01:03:57;94155.44;;;6.74;55.00
77871;BME280;67067;46.850;7.578;2023-03-14T01:04:58;94155.19;;;6.75;55.08
77871;BME280;67067;46.850;7.578;2023-03-14T01:06:28;94148.06;;;6.71;55.07
77871;BME280;67067;46.850;7.578;2023-03-14T01:07:29;94166.53;;;6.81;54.70
77871;BME280;67067;46.850;7.578;2023-03-14T01:08:30;94191.03;;;6.87;54.54
77871;BME280;67067;46.850;7.578;2023-03-14T01:09:30;94198.94;;;6.87;54.52
77871;BME280;67067;46.850;7.578;2023-03-14T01:10:37;94197.06;;;6.87;54.77
77871;BME280;67067;46.850;7.578;2023-03-14T01:11:39;94194.94;;;6.84;54.88
77871;BME280;67067;46.850;7.578;2023-03-14T01:12:39;94187.38;;;6.88;54.62
77871;BME280;67067;46.850;7.578;2023-03-14T01:13:40;94188.94;;;6.89;54.44
77871;BME280;67067;46.850;7.578;2023-03-14T01:14:41;94180.22;;;6.83;54.57
77871;BME280;67067;46.850;7.578;2023-03-14T01:15:41;94190.38;;;6.69;54.35
77871;BME280;67067;46.850;7.578;2023-03-14T01:16:45;94185.19;;;6.80;54.04
77871;BME280;67067;46.850;7.578;2023-03-14T01:17:46;94189.66;;;6.79;54.17
77871;BME280;67067;46.850;7.578;2023-03-14T01:18:47;94183.66;;;6.84;54.21
77871;BME280;67067;46.850;7.578;2023-03-14T01:19:50;94192.63;;;6.88;54.30
77871;BME280;67067;46.850;7.578;2023-03-14T01:20:50;94194.97;;;6.89;54.38
77871;BME280;67067;46.850;7.578;2023-03-14T01:21:53;94186.84;;;6.91;53.75
77871;BME280;67067;46.850;7.578;2023-03-14T01:22:54;94179.53;;;6.93;53.62
77871;BME280;67067;46.850;7.578;2023-03-14T01:23:56;94191.63;;;6.94;53.64
77871;BME280;67067;46.850;7.578;2023-03-14T01:24:56;94196.56;;;6.90;53.63
77871;BME280;67067;46.850;7.578;2023-03-14T01:25:57;94197.13;;;6.93;53.42
77871;BME280;67067;46.850;7.578;2023-03-14T01:26:57;94183.53;;;6.68;54.73
77871;BME280;67067;46.850;7.578;2023-03-14T01:28:02;94165.72;;;6.75;54.04
77871;BME280;67067;46.850;7.578;2023-03-14T01:29:03;94162.28;;;6.75;53.61
77871;BME280;67067;46.850;7.578;2023-03-14T01:30:06;94159.81;;;6.63;53.53
77871;BME280;67067;46.850;7.578;2023-03-14T01:31:09;94170.72;;;6.44;55.00
77871;BME280;67067;46.850;7.578;2023-03-14T01:32:11;94158.47;;;6.55;54.74
77871;BME280;67067;46.850;7.578;2023-03-14T01:33:11;94161.91;;;6.61;54.61
77871;BME280;67067;46.850;7.578;2023-03-14T01:34:13;94160.13;;;6.67;54.38
77871;BME280;67067;46.850;7.578;2023-03-14T01:35:14;94152.47;;;6.65;54.56
77871;BME280;67067;46.850;7.578;2023-03-14T01:36:15;94152.59;;;6.43;54.96
77871;BME280;67067;46.850;7.578;2023-03-14T01:37:17;94141.28;;;6.42;54.80
77871;BME280;67067;46.850;7.578;2023-03-14T01:38:17;94138.63;;;6.37;55.03
77871;BME280;67067;46.850;7.578;2023-03-14T01:39:18;94131.63;;;6.15;54.96
77871;BME280;67067;46.850;7.578;2023-03-14T01:42:45;94120.75;;;6.07;55.55
77871;BME280;67067;46.850;7.578;2023-03-14T01:43:46;94117.25;;;5.96;55.96
77871;BME280;67067;46.850;7.578;2023-03-14T01:44:54;94120.63;;;5.91;56.32
77871;BME280;67067;46.850;7.578;2023-03-14T01:46:58;94122.50;;;5.96;56.26
77871;BME280;67067;46.850;7.578;2023-03-14T01:47:58;94122.50;;;5.96;56.57
77871;BME280;67067;46.850;7.578;2023-03-14T01:50:11;94129.53;;;6.17;56.31
77871;BME280;67067;46.850;7.578;2023-03-14T01:51:30;94127.13;;;6.16;56.08
77871;BME280;67067;46.850;7.578;2023-03-14T01:52:37;94132.78;;;6.30;55.66
77871;BME280;67067;46.850;7.578;2023-03-14T01:53:43;94123.31;;;6.29;55.84
77871;BME280;67067;46.850;7.578;2023-03-14T01:54:51;94132.28;;;6.33;55.61
77871;BME280;67067;46.850;7.578;2023-03-14T01:55:55;94120.50;;;6.41;55.64
77871;BME280;67067;46.850;7.578;2023-03-14T01:57:06;94114.44;;;6.40;55.43
77871;BME280;67067;46.850;7.578;2023-03-14T01:58:09;94115.22;;;6.41;55.74
77871;BME280;67067;46.850;7.578;2023-03-14T01:59:10;94109.72;;;6.42;55.62
77871;BME280;67067;46.850;7.578;2023-03-14T02:00:12;94106.53;;;6.35;55.74
77871;BME280;67067;46.850;7.578;2023-03-14T02:01:16;94116.06;;;6.46;55.41
77871;BME280;67067;46.850;7.578;2023-03-14T02:06:58;94099.16;;;6.32;55.91
77871;BME280;67067;46.850;7.578;2023-03-14T02:08:08;94091.53;;;6.36;55.49
77871;BME280;67067;46.850;7.578;2023-03-14T02:09:18;94087.66;;;6.43;55.40
77871;BME280;67067;46.850;7.578;2023-03-14T02:10:21;94088.72;;;6.42;55.40
77871;BME280;67067;46.850;7.578;2023-03-14T02:11:27;94084.78;;;6.45;55.59
77871;BME280;67067;46.850;7.578;2023-03-14T02:12:37;94067.72;;;6.48;55.27
77871;BME280;67067;46.850;7.578;2023-03-14T02:13:44;94059.25;;;6.40;55.56
77871;BME280;67067;46.850;7.578;2023-03-14T02:15:11;94053.47;;;6.38;55.92
77871;BME280;67067;46.850;7.578;2023-03-14T02:16:36;94062.66;;;6.41;55.71
77871;BME280;67067;46.850;7.578;2023-03-14T02:17:58;94062.72;;;6.46;55.39
77871;BME280;67067;46.850;7.578;2023-03-14T02:21:13;94069.03;;;6.45;55.60
77871;BME280;67067;46.850;7.578;2023-03-14T02:22:21;94066.94;;;6.47;55.66
77871;BME280;67067;46.850;7.578;2023-03-14T02:23:53;94063.75;;;6.45;55.37
77871;BME280;67067;46.850;7.578;2023-03-14T02:26:15;94072.94;;;6.42;55.51
77871;BME280;67067;46.850;7.578;2023-03-14T02:27:20;94065.59;;;6.44;55.17
77871;BME280;67067;46.850;7.578;2023-03-14T02:28:21;94055.34;;;6.43;55.12
77871;BME280;67067;46.850;7.578;2023-03-14T02:29:27;94061.69;;;6.47;55.39
77871;BME280;67067;46.850;7.578;2023-03-14T02:30:30;94060.31;;;6.44;55.32
77871;BME280;67067;46.850;7.578;2023-03-14T02:31:33;94048.22;;;6.43;54.87
77871;BME280;67067;46.850;7.578;2023-03-14T02:32:36;94044.81;;;6.43;54.98
77871;BME280;67067;46.850;7.578;2023-03-14T02:33:38;94052.63;;;6.32;55.47
77871;BME280;67067;46.850;7.578;2023-03-14T02:34:44;94056.84;;;6.34;55.80
77871;BME280;67067;46.850;7.578;2023-03-14T02:35:55;94063.97;;;6.38;55.68
77871;BME280;67067;46.850;7.578;2023-03-14T02:36:57;94065.53;;;6.34;55.76
77871;BME280;67067;46.850;7.578;2023-03-14T02:39:31;94049.94;;;6.22;55.79
77871;BME280;67067;46.850;7.578;2023-03-14T02:40:37;94046.03;;;6.25;55.58
77871;BME280;67067;46.850;7.578;2023-03-14T02:41:37;94060.75;;;6.26;55.61
77871;BME280;67067;46.850;7.578;2023-03-14T02:42:40;94058.16;;;6.31;55.41
77871;BME280;67067;46.850;7.578;2023-03-14T02:43:41;94058.69;;;6.33;55.13
77871;BME280;67067;46.850;7.578;2023-03-14T02:45:39;94051.81;;;6.27;55.58
77871;BME280;67067;46.850;7.578;2023-03-14T02:46:20;94041.28;;;6.22;55.66
77871;BME280;67067;46.850;7.578;2023-03-14T02:47:29;94047.06;;;6.24;55.31
77871;BME280;67067;46.850;7.578;2023-03-14T02:48:57;94048.03;;;6.12;55.79
77871;BME280;67067;46.850;7.578;2023-03-14T02:50:02;94050.75;;;6.23;55.56
77871;BME280;67067;46.850;7.578;2023-03-14T02:51:04;94041.00;;;6.23;55.52
77871;BME280;67067;46.850;7.578;2023-03-14T02:52:05;94037.06;;;6.21;55.27
77871;BME280;67067;46.850;7.578;2023-03-14T02:53:06;94035.31;;;5.99;55.45
77871;BME280;67067;46.850;7.578;2023-03-14T02:54:09;94031.13;;;6.03;55.38
77871;BME280;67067;46.850;7.578;2023-03-14T02:55:10;94030.19;;;6.14;55.40
77871;BME280;67067;46.850;7.578;2023-03-14T02:56:15;94024.09;;;6.09;55.53
77871;BME280;67067;46.850;7.578;2023-03-14T02:57:18;94021.22;;;6.10;55.21
77871;BME280;67067;46.850;7.578;2023-03-14T02:58:21;94016.25;;;6.14;54.73
77871;BME280;67067;46.850;7.578;2023-03-14T02:59:26;94009.38;;;6.08;54.95
77871;BME280;67067;46.850;7.578;2023-03-14T03:00:33;93998.38;;;6.11;55.01
77871;BME280;67067;46.850;7.578;2023-03-14T03:01:36;93990.25;;;6.12;55.31
77871;BME280;67067;46.850;7.578;2023-03-14T03:02:36;93991.19;;;6.01;55.31
77871;BME280;67067;46.850;7.578;2023-03-14T03:03:37;93997.00;;;6.03;55.33
77871;BME280;67067;46.850;7.578;2023-03-14T03:04:37;94000.69;;;6.07;55.16
77871;BME280;67067;46.850;7.578;2023-03-14T03:05:40;94001.78;;;6.11;55.03
77871;BME280;67067;46.850;7.578;2023-03-14T03:06:42;94004.44;;;6.16;54.98
77871;BME280;67067;46.850;7.578;2023-03-14T03:07:43;93997.63;;;6.15;55.07
77871;BME280;67067;46.850;7.578;2023-03-14T03:08:44;94001.31;;;6.20;54.98
77871;BME280;67067;46.850;7.578;2023-03-14T03:09:44;93998.41;;;6.21;54.93
77871;BME280;67067;46.850;7.578;2023-03-14T03:10:45;93995.53;;;6.17;54.93
77871;BME280;67067;46.850;7.578;2023-03-14T03:11:46;93999.38;;;6.05;55.10
77871;BME280;67067;46.850;7.578;2023-03-14T03:12:52;93996.03;;;6.14;54.87
77871;BME280;67067;46.850;7.578;2023-03-14T03:13:58;93993.94;;;6.16;55.26
77871;BME280;67067;46.850;7.578;2023-03-14T03:15:00;93998.69;;;6.20;55.08
77871;BME280;67067;46.850;7.578;2023-03-14T03:16:01;93986.09;;;6.22;55.08
77871;BME280;67067;46.850;7.578;2023-03-14T03:17:03;93987.13;;;6.21;54.71
77871;BME280;67067;46.850;7.578;2023-03-14T03:18:06;93980.84;;;6.22;54.79
77871;BME280;67067;46.850;7.578;2023-03-14T03:19:07;93991.34;;;6.22;54.65
77871;BME280;67067;46.850;7.578;2023-03-14T03:20:08;93991.88;;;6.24;54.74
77871;BME280;67067;46.850;7.578;2023-03-14T03:21:09;93997.59;;;6.10;54.80
77871;BME280;67067;46.850;7.578;2023-03-14T03:22:10;94001.06;;;6.21;54.99
77871;BME280;67067;46.850;7.578;2023-03-14T03:23:10;93993.47;;;6.25;54.68
77871;BME280;67067;46.850;7.578;2023-03-14T03:24:12;93988.22;;;6.25;54.95
77871;BME280;67067;46.850;7.578;2023-03-14T03:25:13;93985.59;;;6.25;54.98
77871;BME280;67067;46.850;7.578;2023-03-14T03:26:13;93982.69;;;6.26;54.93
77871;BME280;67067;46.850;7.578;2023-03-14T03:27:16;93980.31;;;6.25;54.86
77871;BME280;67067;46.850;7.578;2023-03-14T03:28:18;93980.31;;;6.25;54.45
77871;BME280;67067;46.850;7.578;2023-03-14T03:29:19;93983.19;;;6.23;54.51
77871;BME280;67067;46.850;7.578;2023-03-14T03:30:22;93982.41;;;6.23;54.71
77871;BME280;67067;46.850;7.578;2023-03-14T03:31:23;93991.03;;;6.18;55.02
77871;BME280;67067;46.850;7.578;2023-03-14T03:32:23;93993.94;;;6.16;54.83
77871;BME280;67067;46.850;7.578;2023-03-14T03:33:24;93989.13;;;6.08;55.22
77871;BME280;67067;46.850;7.578;2023-03-14T03:34:27;93983.34;;;6.06;55.63
77871;BME280;67067;46.850;7.578;2023-03-14T03:35:28;93987.53;;;6.02;55.45
77871;BME280;67067;46.850;7.578;2023-03-14T03:36:32;93986.47;;;6.03;55.73
77871;BME280;67067;46.850;7.578;2023-03-14T03:37:34;93989.06;;;5.98;55.78
77871;BME280;67067;46.850;7.578;2023-03-14T03:38:39;93977.53;;;5.99;55.77
77871;BME280;67067;46.850;7.578;2023-03-14T03:39:40;93973.84;;;6.00;55.51
77871;BME280;67067;46.850;7.578;2023-03-14T03:40:41;93973.84;;;6.00;55.50
77871;BME280;67067;46.850;7.578;2023-03-14T03:41:43;93956.50;;;5.99;55.04
77871;BME280;67067;46.850;7.578;2023-03-14T03:42:47;93960.69;;;5.95;55.07
77871;BME280;67067;46.850;7.578;2023-03-14T03:43:50;93963.28;;;5.90;54.90
77871;BME280;67067;46.850;7.578;2023-03-14T03:44:54;93967.38;;;5.75;55.65
77871;BME280;67067;46.850;7.578;2023-03-14T03:45:55;93968.13;;;5.70;55.76
77871;BME280;67067;46.850;7.578;2023-03-14T03:46:57;93964.34;;;5.56;56.23
77871;BME280;67067;46.850;7.578;2023-03-14T03:48:00;93969.31;;;5.52;55.87
77871;BME280;67067;46.850;7.578;2023-03-14T03:49:03;93962.06;;;5.65;55.65
77871;BME280;67067;46.850;7.578;2023-03-14T03:50:06;93959.97;;;5.67;55.56
77871;BME280;67067;46.850;7.578;2023-03-14T03:51:07;93959.97;;;5.67;55.45
77871;BME280;67067;46.850;7.578;2023-03-14T03:52:10;93960.97;;;5.61;55.59
77871;BME280;67067;46.850;7.578;2023-03-14T03:53:11;93955.16;;;5.53;55.56
77871;BME280;67067;46.850;7.578;2023-03-14T03:54:11;93949.00;;;5.42;56.10
77871;BME280;67067;46.850;7.578;2023-03-14T03:55:12;93945.75;;;5.30;56.57
77871;BME280;67067;46.850;7.578;2023-03-14T03:56:15;93935.16;;;5.20;56.95
77871;BME280;67067;46.850;7.578;2023-03-14T03:57:17;93946.94;;;5.17;56.77
77871;BME280;67067;46.850;7.578;2023-03-14T03:58:17;93935.34;;;5.13;56.51
77871;BME280;67067;46.850;7.578;2023-03-14T03:59:18;93941.13;;;5.15;56.60
77871;BME280;67067;46.850;7.578;2023-03-14T04:00:19;93931.19;;;5.17;56.33
77871;BME280;67067;46.850;7.578;2023-03-14T04:01:21;93933.81;;;5.17;56.52
77871;BME280;67067;46.850;7.578;2023-03-14T04:02:24;93925.44;;;5.20;56.44
77871;BME280;67067;46.850;7.578;2023-03-14T04:03:25;93909.72;;;5.20;56.09
77871;BME280;67067;46.850;7.578;2023-03-14T04:04:26;93912.31;;;5.20;55.89
77871;BME280;67067;46.850;7.578;2023-03-14T04:05:27;93897.63;;;5.19;55.86
77871;BME280;67067;46.850;7.578;2023-03-14T04:06:34;93896.09;;;5.23;55.49
77871;BME280;67067;46.850;7.578;2023-03-14T04:07:35;93890.06;;;5.23;55.59
77871;BME280;67067;46.850;7.578;2023-03-14T04:08:35;93894.47;;;5.17;55.81
77871;BME280;67067;46.850;7.578;2023-03-14T04:09:39;93896.75;;;5.08;56.16
77871;BME280;67067;46.850;7.578;2023-03-14T04:11:00;93897.03;;;5.12;55.92
77871;BME280;67067;46.850;7.578;2023-03-14T04:12:26;93900.22;;;5.14;56.18
77871;BME280;67067;46.850;7.578;2023-03-14T04:13:31;93894.41;;;5.12;56.09
77871;BME280;67067;46.850;7.578;2023-03-14T04:14:32;93896.28;;;5.11;55.95
77871;BME280;67067;46.850;7.578;2023-03-14T04:15:54;93892.75;;;5.00;56.68
77871;BME280;67067;46.850;7.578;2023-03-14T04:16:58;93901.78;;;5.15;56.03
77871;BME280;67067;46.850;7.578;2023-03-14T04:18:01;93908.38;;;5.18;56.29
77871;BME280;67067;46.850;7.578;2023-03-14T04:19:02;93912.31;;;5.20;56.36
77871;BME280;67067;46.850;7.578;2023-03-14T04:20:05;93915.81;;;5.26;56.15
77871;BME280;67067;46.850;7.578;2023-03-14T04:21:10;93916.06;;;5.29;56.16
77871;BME280;67067;46.850;7.578;2023-03-14T04:22:20;93913.22;;;5.31;56.03
77871;BME280;67067;46.850;7.578;2023-03-14T04:23:24;93909.28;;;5.34;55.73
77871;BME280;67067;46.850;7.578;2023-03-14T04:24:24;93906.44;;;5.35;55.68
77871;BME280;67067;46.850;7.578;2023-03-14T04:25:25;93903.00;;;5.35;56.04
77871;BME280;67067;46.850;7.578;2023-03-14T04:26:29;93902.44;;;5.33;55.93
77871;BME280;67067;46.850;7.578;2023-03-14T04:31:57;93897.59;;;5.14;55.97
77871;BME280;67067;46.850;7.578;2023-03-14T04:32:58;93894.41;;;5.12;55.94
77871;BME280;67067;46.850;7.578;2023-03-14T04:34:03;93893.16;;;5.14;55.91
77871;BME280;67067;46.850;7.578;2023-03-14T04:35:09;93885.81;;;5.17;55.81
77871;BME280;67067;46.850;7.578;2023-03-14T04:36:10;93885.28;;;5.14;56.20
77871;BME280;67067;46.850;7.578;2023-03-14T04:37:14;93881.31;;;5.12;55.86
77871;BME280;67067;46.850;7.578;2023-03-14T04:38:17;93876.06;;;5.12;55.90
77871;BME280;67067;46.850;7.578;2023-03-14T04:39:19;93876.44;;;4.93;56.44
77871;BME280;67067;46.850;7.578;2023-03-14T04:40:39;93872.22;;;4.92;56.28
77871;BME280;67067;46.850;7.578;2023-03-14T04:41:44;93867.75;;;4.93;56.33
77871;BME280;67067;46.850;7.578;2023-03-14T04:42:48;93864.38;;;4.92;56.23
77871;BME280;67067;46.850;7.578;2023-03-14T04:43:49;93861.44;;;4.89;56.32
77871;BME280;67067;46.850;7.578;2023-03-14T04:44:50;93867.47;;;4.89;56.49
77871;BME280;67067;46.850;7.578;2023-03-14T04:45:57;93857.78;;;4.90;56.49
77871;BME280;67067;46.850;7.578;2023-03-14T04:46:58;93858.00;;;4.83;56.50
77871;BME280;67067;46.850;7.578;2023-03-14T04:47:59;93849.59;;;4.81;56.62
77871;BME280;67067;46.850;7.578;2023-03-14T04:48:59;93853.03;;;4.86;56.39
77871;BME280;67067;46.850;7.578;2023-03-14T04:50:00;93849.13;;;4.89;56.21
77871;BME280;67067;46.850;7.578;2023-03-14T04:51:01;93844.44;;;4.91;56.25
77871;BME280;67067;46.850;7.578;2023-03-14T04:52:05;93846.50;;;4.89;56.32
77871;BME280;67067;46.850;7.578;2023-03-14T04:53:07;93841.00;;;4.91;56.25
77871;BME280;67067;46.850;7.578;2023-03-14T04:54:08;93835.53;;;4.92;55.66
77871;BME280;67067;46.850;7.578;2023-03-14T04:55:09;93823.94;;;4.88;55.83
77871;BME280;67067;46.850;7.578;2023-03-14T04:56:09;93819.72;;;4.82;55.94
77871;BME280;67067;46.850;7.578;2023-03-14T04:57:13;93822.31;;;4.82;56.35
77871;BME280;67067;46.850;7.578;2023-03-14T04:58:17;93820.22;;;4.79;56.17
77871;BME280;67067;46.850;7.578;2023-03-14T04:59:18;93822.28;;;4.77;55.93
77871;BME280;67067;46.850;7.578;2023-03-14T05:00:18;93819.41;;;4.78;55.83
77871;BME280;67067;46.850;7.578;2023-03-14T05:01:25;93813.38;;;4.78;55.70
77871;BME280;67067;46.850;7.578;2023-03-14T05:02:58;93816.44;;;4.69;55.82
77871;BME280;67067;46.850;7.578;2023-03-14T05:04:11;93824.56;;;4.68;55.60
77871;BME280;67067;46.850;7.578;2023-03-14T05:05:45;93806.94;;;4.63;55.50
77871;BME280;67067;46.850;7.578;2023-03-14T05:06:58;93804.09;;;4.65;55.55
77871;BME280;67067;46.850;7.578;2023-03-14T05:08:21;93818.72;;;4.61;55.86
77871;BME280;67067;46.850;7.578;2023-03-14T05:09:51;93811.09;;;4.59;55.83
77871;BME280;67067;46.850;7.578;2023-03-14T05:11:18;93804.28;;;4.58;55.70
77871;BME280;67067;46.850;7.578;2023-03-14T05:12:36;93795.38;;;4.59;55.86
77871;BME280;67067;46.850;7.578;2023-03-14T05:14:01;93793.25;;;4.56;55.93
77871;BME280;67067;46.850;7.578;2023-03-14T05:15:20;93787.47;;;4.54;56.12
77871;BME280;67067;46.850;7.578;2023-03-14T05:16:44;93788.47;;;4.48;56.15
77871;BME280;67067;46.850;7.578;2023-03-14T05:17:53;93785.06;;;4.47;56.22
77871;BME280;67067;46.850;7.578;2023-03-14T05:19:04;93795.00;;;4.45;56.28
77871;BME280;67067;46.850;7.578;2023-03-14T05:20:26;93802.28;;;4.43;56.34
77871;BME280;67067;46.850;7.578;2023-03-14T05:21:53;93800.44;;;4.38;56.40
77871;BME280;67067;46.850;7.578;2023-03-14T05:23:12;93798.00;;;4.32;56.41
77871;BME280;67067;46.850;7.578;2023-03-14T05:24:35;93793.50;;;4.27;56.28
77871;BME280;67067;46.850;7.578;2023-03-14T05:26:06;93785.28;;;4.18;56.19
77871;BME280;67067;46.850;7.578;2023-03-14T05:27:21;93783.97;;;4.16;56.60
77871;BME280;67067;46.850;7.578;2023-03-14T05:28:34;93777.06;;;4.09;56.72
77871;BME280;67067;46.850;7.578;2023-03-14T05:30:04;93772.53;;;3.99;56.99
77871;BME280;67067;46.850;7.578;2023-03-14T05:35:37;93748.34;;;3.70;56.83
77871;BME280;67067;46.850;7.578;2023-03-14T05:36:50;93744.16;;;3.69;56.94
77871;BME280;67067;46.850;7.578;2023-03-14T05:38:17;93736.25;;;3.64;56.96
77871;BME280;67067;46.850;7.578;2023-03-14T05:39:36;93733.00;;;3.57;57.18
77871;BME280;67067;46.850;7.578;2023-03-14T05:40:45;93734.97;;;3.44;57.48
77871;BME280;67067;46.850;7.578;2023-03-14T05:42:15;93740.84;;;3.34;57.73
77871;BME280;67067;46.850;7.578;2023-03-14T05:43:45;93730.19;;;3.41;57.68
77871;BME280;67067;46.850;7.578;2023-03-14T05:45:06;93737.59;;;3.44;57.43
77871;BME280;67067;46.850;7.578;2023-03-14T05:46:25;93727.88;;;3.45;57.17
77871;BME280;67067;46.850;7.578;2023-03-14T05:47:51;93720.56;;;3.24;58.02
77871;BME280;67067;46.850;7.578;2023-03-14T05:49:03;93729.09;;;3.37;57.81
77871;BME280;67067;46.850;7.578;2023-03-14T05:50:24;93733.84;;;3.40;57.63
77871;BME280;67067;46.850;7.578;2023-03-14T05:51:47;93732.81;;;3.41;57.53
77871;BME280;67067;46.850;7.578;2023-03-14T05:53:09;93728.94;;;3.44;57.29
77871;BME280;67067;46.850;7.578;2023-03-14T05:54:47;93714.03;;;3.44;57.30
77871;BME280;67067;46.850;7.578;2023-03-14T05:56:08;93716.44;;;3.29;57.67
77871;BME280;67067;46.850;7.578;2023-03-14T05:57:20;93718.50;;;3.26;57.95
77871;BME280;67067;46.850;7.578;2023-03-14T05:58:45;93714.06;;;3.27;57.56
77871;BME280;67067;46.850;7.578;2023-03-14T05:59:58;93721.66;;;3.29;57.28
77871;BME280;67067;46.850;7.578;2023-03-14T06:01:13;93721.06;;;3.21;57.85
77871;BME280;67067;46.850;7.578;2023-03-14T06:02:30;93738.16;;;3.29;57.67
77871;BME280;67067;46.850;7.578;2023-03-14T06:03:38;93743.69;;;3.33;57.67
77871;BME280;67067;46.850;7.578;2023-03-14T06:04:39;93747.66;;;3.35;57.51
77871;BME280;67067;46.850;7.578;2023-03-14T06:05:39;93746.38;;;3.38;57.81
77871;BME280;67067;46.850;7.578;2023-03-14T06:06:40;93740.91;;;3.39;57.86
77871;BME280;67067;46.850;7.578;2023-03-14T06:07:44;93746.19;;;3.45;57.70
77871;BME280;67067;46.850;7.578;2023-03-14T06:08:45;93744.69;;;3.49;57.45
77871;BME280;67067;46.850;7.578;2023-03-14T06:09:46;93735.56;;;3.51;57.53
77871;BME280;67067;46.850;7.578;2023-03-14T06:10:49;93742.94;;;3.54;57.32
77871;BME280;67067;46.850;7.578;2023-03-14T06:11:50;93743.97;;;3.53;57.26
77871;BME280;67067;46.850;7.578;2023-03-14T06:12:50;93747.13;;;3.55;57.34
77871;BME280;67067;46.850;7.578;2023-03-14T06:13:54;93741.41;;;3.59;57.18
77871;BME280;67067;46.850;7.578;2023-03-14T06:14:55;93738.00;;;3.58;57.13
77871;BME280;67067;46.850;7.578;2023-03-14T06:15:57;93732.03;;;3.63;57.32